Time;durP1;ratioP1;P1;durP2;ratioP2;P2;SDS_P1;SDS_P2;PMS_P1;PMS_P2;Temp;Humidity;BMP_temperature;BMP_pressure;BME280_temperature;BME280_humidity;BME280_pressure;Samples;Min_cycle;Max_cycle;Signal;HPM_P1;HPM_P2
2021/10/04 00:01:27;;;;;;;1.92;1.00;;;14.50;99.90;;;;;;4955748;28;20027;-70
2021/10/04 00:03:53;;;;;;;0.70;0.70;;;14.50;99.90;;;;;;4956068;28;20047;-70
2021/10/04 00:06:18;;;;;;;1.02;0.60;;;14.40;99.90;;;;;;4955638;28;20390;-69
2021/10/04 00:08:44;;;;;;;1.58;0.88;;;14.50;99.90;;;;;;4956020;28;20386;-70
2021/10/04 00:11:10;;;;;;;0.47;0.47;;;14.50;99.90;;;;;;4954760;28;20449;-70
2021/10/04 00:13:36;;;;;;;0.73;0.60;;;14.50;99.90;;;;;;4954764;28;20046;-70
2021/10/04 00:16:02;;;;;;;1.52;0.63;;;14.30;99.90;;;;;;4954978;28;20042;-70
2021/10/04 00:18:27;;;;;;;0.60;0.60;;;14.40;99.90;;;;;;4955925;28;20163;-70
2021/10/04 00:20:53;;;;;;;0.63;0.63;;;14.40;99.90;;;;;;4954610;28;20078;-70
2021/10/04 00:23:19;;;;;;;0.75;0.75;;;14.40;99.90;;;;;;4962654;28;20028;-70
2021/10/04 00:25:45;;;;;;;0.80;0.80;;;14.40;99.90;;;;;;4973935;28;20037;-70
2021/10/04 00:28:11;;;;;;;3.03;0.70;;;14.40;99.90;;;;;;4972221;28;20055;-70
2021/10/04 00:30:37;;;;;;;0.70;0.63;;;14.40;99.90;;;;;;4974415;28;20028;-69
2021/10/04 00:33:03;;;;;;;1.00;0.60;;;14.40;99.90;;;;;;4974467;28;20023;-70
2021/10/04 00:35:28;;;;;;;0.63;0.57;;;14.30;99.90;;;;;;4964558;28;20035;-70
2021/10/04 00:37:55;;;;;;;0.50;0.50;;;14.30;99.90;;;;;;4956133;28;20042;-69
2021/10/04 00:40:26;;;;;;;0.98;0.73;;;14.40;99.90;;;;;;4955404;28;20055;-72
2021/10/04 00:42:52;;;;;;;0.65;0.63;;;14.10;99.90;;;;;;4955638;28;20046;-69
2021/10/04 00:45:19;;;;;;;1.60;0.65;;;14.20;99.90;;;;;;4954534;28;20047;-70
2021/10/04 00:47:45;;;;;;;0.75;0.75;;;14.20;99.90;;;;;;4955076;28;20098;-70
2021/10/04 00:50:14;;;;;;;0.95;0.60;;;14.20;99.90;;;;;;4955322;28;20019;-69
2021/10/04 00:52:40;;;;;;;0.60;0.60;;;14.20;99.90;;;;;;4955228;28;20050;-70
2021/10/04 00:55:07;;;;;;;0.68;0.60;;;14.20;99.90;;;;;;4953388;28;20035;-70
2021/10/04 00:57:34;;;;;;;0.80;0.73;;;14.30;99.90;;;;;;4955188;28;20146;-71
2021/10/04 01:00:00;;;;;;;0.95;0.95;;;14.30;99.90;;;;;;4955059;28;20102;-72
2021/10/04 01:02:26;;;;;;;0.60;0.60;;;14.30;99.90;;;;;;4954875;28;20039;-71
2021/10/04 01:04:51;;;;;;;0.80;0.80;;;14.30;99.90;;;;;;4954391;28;20115;-70
2021/10/04 01:07:17;;;;;;;0.80;0.80;;;14.30;99.90;;;;;;4955010;28;20027;-71
2021/10/04 01:09:43;;;;;;;0.70;0.50;;;14.30;99.90;;;;;;4955893;28;20023;-71
2021/10/04 01:12:09;;;;;;;0.60;0.60;;;14.40;99.90;;;;;;4955384;28;20070;-70
2021/10/04 01:14:35;;;;;;;0.60;0.60;;;14.30;99.90;;;;;;4954096;28;20039;-70
2021/10/04 01:17:00;;;;;;;0.70;0.70;;;14.30;99.90;;;;;;4954486;28;20422;-70
2021/10/04 01:19:26;;;;;;;1.15;0.68;;;14.40;99.90;;;;;;4954764;28;20032;-71
2021/10/04 01:21:52;;;;;;;0.57;0.57;;;14.40;99.90;;;;;;4954518;28;20131;-70
2021/10/04 01:24:17;;;;;;;0.50;0.50;;;14.40;99.90;;;;;;4953989;28;20492;-71
2021/10/04 01:26:44;;;;;;;0.75;0.57;;;14.40;99.90;;;;;;4954299;28;20378;-70
2021/10/04 01:29:11;;;;;;;0.52;0.50;;;14.30;99.90;;;;;;4954505;28;20027;-70
2021/10/04 01:31:36;;;;;;;0.82;0.82;;;14.30;99.90;;;;;;4954375;28;20023;-71
2021/10/04 01:34:04;;;;;;;1.30;0.65;;;14.30;99.90;;;;;;4954467;28;20405;-71
2021/10/04 01:36:30;;;;;;;1.17;0.60;;;14.30;99.90;;;;;;4953789;28;20489;-70
2021/10/04 01:38:57;;;;;;;1.48;0.70;;;14.40;99.90;;;;;;4954345;28;20065;-70
2021/10/04 01:41:23;;;;;;;1.48;0.50;;;14.30;99.90;;;;;;4954341;28;20393;-71
2021/10/04 01:43:51;;;;;;;0.88;0.70;;;14.20;99.90;;;;;;4954288;28;20114;-70
2021/10/04 01:46:17;;;;;;;0.70;0.70;;;14.10;99.90;;;;;;4953136;28;20399;-71
2021/10/04 01:48:43;;;;;;;0.65;0.52;;;14.20;99.90;;;;;;4954255;28;20029;-71
2021/10/04 01:51:08;;;;;;;0.80;0.70;;;14.20;99.90;;;;;;4954206;28;20058;-71
2021/10/04 01:53:34;;;;;;;0.70;0.70;;;14.20;99.90;;;;;;4954122;28;20050;-71
2021/10/04 01:56:01;;;;;;;1.15;0.93;;;14.20;99.90;;;;;;4953221;28;20098;-71
2021/10/04 01:58:30;;;;;;;0.88;0.88;;;14.30;99.90;;;;;;4953954;28;20023;-71
2021/10/04 02:01:00;;;;;;;0.93;0.55;;;14.20;99.90;;;;;;4953937;28;20023;-71
2021/10/04 02:03:26;;;;;;;0.75;0.75;;;14.10;99.90;;;;;;4952554;28;20497;-71
2021/10/04 02:05:52;;;;;;;0.70;0.70;;;14.10;99.90;;;;;;4953088;28;20023;-70
2021/10/04 02:08:17;;;;;;;0.68;0.60;;;14.10;99.90;;;;;;4953684;28;20041;-71
2021/10/04 02:10:44;;;;;;;0.70;0.70;;;14.00;99.90;;;;;;4953980;28;20545;-71
2021/10/04 02:13:11;;;;;;;0.70;0.70;;;13.90;99.90;;;;;;4953895;28;20497;-70
2021/10/04 02:15:38;;;;;;;0.57;0.57;;;13.90;99.90;;;;;;4953179;28;20046;-69
2021/10/04 02:18:04;;;;;;;0.80;0.80;;;14.00;99.90;;;;;;4951806;28;20393;-69
2021/10/04 02:20:34;;;;;;;1.23;0.75;;;13.90;99.90;;;;;;4953739;28;20038;-70
2021/10/04 02:23:05;;;;;;;1.30;0.70;;;14.00;99.90;;;;;;4953778;28;20034;-69
2021/10/04 02:25:36;;;;;;;1.75;0.60;;;13.80;99.90;;;;;;4953005;28;20106;-70
2021/10/04 02:28:02;;;;;;;0.88;0.70;;;13.60;99.90;;;;;;4953912;28;20034;-69
2021/10/04 02:30:28;;;;;;;1.60;0.80;;;13.40;99.90;;;;;;4953658;28;20440;-71
2021/10/04 02:32:54;;;;;;;2.45;0.70;;;13.30;99.90;;;;;;4953582;28;20031;-70
2021/10/04 02:35:20;;;;;;;0.80;0.80;;;13.30;99.90;;;;;;4952708;28;20047;-71
2021/10/04 02:37:48;;;;;;;1.05;0.68;;;13.40;99.90;;;;;;4953125;28;20484;-71
2021/10/04 02:40:14;;;;;;;1.38;0.75;;;13.30;99.90;;;;;;4953518;28;20028;-70
2021/10/04 02:42:41;;;;;;;0.70;0.70;;;13.20;99.90;;;;;;4953469;28;20020;-71
2021/10/04 02:45:10;;;;;;;0.90;0.90;;;13.10;99.90;;;;;;4952799;28;20034;-71
2021/10/04 02:47:36;;;;;;;1.08;0.93;;;13.10;99.90;;;;;;4953344;28;20552;-71
2021/10/04 02:50:04;;;;;;;1.40;1.00;;;12.90;99.90;;;;;;5000725;23;20131;-75
2021/10/04 02:52:30;;;;;;;1.27;1.02;;;13.00;99.90;;;;;;4914799;29;20024;-74
2021/10/04 02:54:55;;;;;;;1.45;1.05;;;13.10;99.90;;;;;;4915325;29;20418;-74
2021/10/04 02:57:21;;;;;;;1.13;1.00;;;13.20;99.90;;;;;;4916542;29;20028;-75
2021/10/04 02:59:47;;;;;;;1.20;1.05;;;13.20;99.90;;;;;;4916202;29;20033;-74
2021/10/04 03:02:12;;;;;;;1.77;0.82;;;13.20;99.90;;;;;;4916839;29;20060;-75
2021/10/04 03:04:38;;;;;;;0.77;0.77;;;13.20;99.90;;;;;;4931402;29;20012;-69
2021/10/04 03:07:04;;;;;;;1.42;0.90;;;13.20;99.90;;;;;;4935166;29;20064;-74
2021/10/04 03:09:30;;;;;;;1.17;0.90;;;13.20;99.90;;;;;;4916466;29;20039;-75
2021/10/04 03:11:56;;;;;;;0.90;0.90;;;13.10;99.90;;;;;;4916132;29;20107;-75
2021/10/04 03:14:22;;;;;;;0.77;0.77;;;13.00;99.90;;;;;;4915144;29;20156;-74
2021/10/04 03:16:48;;;;;;;0.95;0.82;;;13.00;99.90;;;;;;4915664;29;20035;-75
2021/10/04 03:19:13;;;;;;;1.40;0.90;;;13.20;99.90;;;;;;4913755;29;20039;-75
2021/10/04 03:21:39;;;;;;;1.33;1.15;;;13.00;99.90;;;;;;4914109;29;20036;-73
2021/10/04 03:24:05;;;;;;;1.67;1.20;;;13.00;99.90;;;;;;4915233;29;20096;-75
2021/10/04 03:26:30;;;;;;;1.60;1.10;;;12.90;99.90;;;;;;4914727;29;20474;-75
2021/10/04 03:28:56;;;;;;;2.05;1.13;;;12.90;99.90;;;;;;4914195;29;20035;-74
2021/10/04 03:31:23;;;;;;;2.33;1.10;;;12.80;99.90;;;;;;4915158;29;20035;-73
2021/10/04 03:33:48;;;;;;;1.40;1.30;;;13.00;99.90;;;;;;4915538;29;20043;-75
2021/10/04 03:36:14;;;;;;;3.50;1.52;;;13.00;99.90;;;;;;4913478;29;20373;-75
2021/10/04 03:38:40;;;;;;;2.00;1.20;;;13.20;99.90;;;;;;4913934;29;20071;-73
2021/10/04 03:41:06;;;;;;;2.35;1.30;;;13.20;99.90;;;;;;4915199;29;20052;-75
2021/10/04 03:43:33;;;;;;;1.63;1.52;;;13.00;99.90;;;;;;4915547;29;20024;-74
2021/10/04 03:45:58;;;;;;;1.75;1.65;;;12.90;99.90;;;;;;4915282;29;20036;-74
2021/10/04 03:48:24;;;;;;;1.40;1.30;;;12.80;99.90;;;;;;4914273;29;20038;-74
2021/10/04 03:50:50;;;;;;;2.42;1.40;;;12.80;99.90;;;;;;4916623;29;20059;-74
2021/10/04 03:53:15;;;;;;;1.80;1.70;;;12.80;99.90;;;;;;4918510;29;20059;-75
2021/10/04 03:55:41;;;;;;;1.17;1.17;;;12.90;99.90;;;;;;4917761;29;20032;-74
2021/10/04 03:58:07;;;;;;;1.13;1.13;;;12.80;99.90;;;;;;4916887;29;20060;-74
2021/10/04 04:00:33;;;;;;;1.23;1.02;;;12.70;99.90;;;;;;4918173;29;20024;-73
2021/10/04 04:02:58;;;;;;;1.08;1.08;;;12.70;99.90;;;;;;4918453;29;20083;-72
2021/10/04 04:05:24;;;;;;;3.33;1.05;;;12.70;99.90;;;;;;4917307;29;20050;-75
2021/10/04 04:07:50;;;;;;;1.17;0.85;;;12.80;99.90;;;;;;4918231;29;20020;-75
2021/10/04 04:10:16;;;;;;;0.80;0.70;;;12.70;99.90;;;;;;4918099;29;20032;-75
2021/10/04 04:12:43;;;;;;;0.60;0.60;;;12.60;99.90;;;;;;4916939;29;20420;-75
2021/10/04 04:15:10;;;;;;;0.88;0.88;;;12.80;99.90;;;;;;4918219;29;20040;-74
2021/10/04 04:17:36;;;;;;;0.70;0.60;;;12.90;99.90;;;;;;4918642;29;20036;-74
2021/10/04 04:20:02;;;;;;;0.95;0.77;;;12.90;99.90;;;;;;4916784;29;20038;-75
2021/10/04 04:22:28;;;;;;;1.15;0.63;;;12.80;99.90;;;;;;4918162;29;20028;-75
2021/10/04 04:24:55;;;;;;;0.80;0.60;;;12.90;99.90;;;;;;4917497;29;20027;-74
2021/10/04 04:27:22;;;;;;;0.70;0.70;;;13.00;99.90;;;;;;4918192;29;20459;-74
2021/10/04 04:29:47;;;;;;;0.80;0.80;;;13.00;99.90;;;;;;4916695;29;20028;-71
2021/10/04 04:32:13;;;;;;;0.55;0.55;;;12.90;99.90;;;;;;4912628;29;20024;-80
2021/10/04 04:34:39;;;;;;;1.42;0.77;;;12.90;99.90;;;;;;4916371;29;20079;-80
2021/10/04 04:37:05;;;;;;;1.42;0.60;;;12.90;99.90;;;;;;4919689;29;20035;-80
2021/10/04 04:39:32;;;;;;;0.65;0.65;;;12.90;99.90;;;;;;4918867;29;20414;-80
2021/10/04 04:41:59;;;;;;;1.67;0.80;;;12.60;99.90;;;;;;4919314;29;20035;-80
2021/10/04 04:44:25;;;;;;;1.00;0.57;;;12.50;99.90;;;;;;4918616;29;20023;-80
2021/10/04 04:46:51;;;;;;;0.70;0.70;;;12.40;99.90;;;;;;4919596;29;20024;-80
2021/10/04 04:49:19;;;;;;;2.17;0.60;;;12.30;99.90;;;;;;4916141;29;20040;-80
2021/10/04 04:51:45;;;;;;;0.93;0.90;;;12.40;99.90;;;;;;4921607;29;20517;-81
2021/10/04 04:54:11;;;;;;;0.90;0.90;;;12.40;99.90;;;;;;4919861;29;20021;-80
2021/10/04 04:56:37;;;;;;;1.45;0.93;;;12.40;99.90;;;;;;4922430;29;20047;-80
2021/10/04 04:59:03;;;;;;;0.80;0.80;;;12.50;99.90;;;;;;4922344;29;20427;-79
2021/10/04 05:01:29;;;;;;;1.20;0.93;;;12.60;99.90;;;;;;4921192;29;20047;-79
2021/10/04 05:03:54;;;;;;;0.85;0.82;;;12.60;99.90;;;;;;4921114;29;20055;-80
2021/10/04 05:06:20;;;;;;;0.93;0.73;;;12.70;99.90;;;;;;4922621;29;20020;-78
2021/10/04 05:08:46;;;;;;;1.17;1.08;;;12.80;99.90;;;;;;4922540;29;20039;-81
2021/10/04 05:11:11;;;;;;;1.00;1.00;;;12.80;99.90;;;;;;4920115;29;20035;-80
2021/10/04 05:13:37;;;;;;;1.85;0.60;;;12.70;99.90;;;;;;4919535;29;20087;-83
2021/10/04 05:16:03;;;;;;;0.80;0.80;;;12.70;99.90;;;;;;4922104;29;20036;-81
2021/10/04 05:18:29;;;;;;;0.80;0.80;;;12.70;99.90;;;;;;4923945;29;20040;-82
2021/10/04 05:20:54;;;;;;;0.70;0.70;;;12.90;99.90;;;;;;4921454;29;20028;-81
2021/10/04 05:23:20;;;;;;;0.77;0.70;;;12.90;99.90;;;;;;4921366;29;20044;-81
2021/10/04 05:25:46;;;;;;;0.88;0.85;;;12.90;99.90;;;;;;4919760;29;20434;-83
2021/10/04 05:28:11;;;;;;;2.65;0.88;;;12.90;99.90;;;;;;4921881;29;20480;-82
2021/10/04 05:30:37;;;;;;;1.77;1.02;;;13.00;99.90;;;;;;4921035;29;20027;-82
2021/10/04 05:33:03;;;;;;;0.80;0.80;;;12.90;99.90;;;;;;4923736;29;20059;-81
2021/10/04 05:35:29;;;;;;;1.15;0.82;;;13.10;99.90;;;;;;4919302;29;20521;-82
2021/10/04 05:37:55;;;;;;;1.10;0.80;;;13.10;99.90;;;;;;4922048;29;20020;-78
2021/10/04 05:40:21;;;;;;;1.15;0.85;;;13.10;99.90;;;;;;4919345;29;20053;-79
2021/10/04 05:42:47;;;;;;;1.75;1.30;;;13.00;99.90;;;;;;4918909;29;20375;-80
2021/10/04 05:45:15;;;;;;;1.35;1.00;;;12.90;99.90;;;;;;4916375;29;20028;-80
2021/10/04 05:47:42;;;;;;;0.70;0.70;;;13.00;99.90;;;;;;4918267;29;20032;-81
2021/10/04 05:50:12;;;;;;;0.80;0.80;;;13.00;99.90;;;;;;4918090;29;20148;-80
2021/10/04 05:52:38;;;;;;;2.15;0.70;;;13.00;99.90;;;;;;4918444;29;20399;-81
2021/10/04 05:55:05;;;;;;;0.90;0.90;;;12.90;99.90;;;;;;4917272;29;20031;-79
2021/10/04 05:57:30;;;;;;;1.85;1.00;;;13.00;99.90;;;;;;4938268;29;20072;-79
2021/10/04 05:59:56;;;;;;;1.27;0.98;;;12.90;99.90;;;;;;4934436;29;20403;-81
2021/10/04 06:02:22;;;;;;;0.85;0.85;;;13.10;99.90;;;;;;4920200;29;20391;-79
2021/10/04 06:04:48;;;;;;;1.42;1.33;;;13.00;99.90;;;;;;4917698;29;20495;-79
2021/10/04 06:07:13;;;;;;;1.67;1.58;;;13.10;99.90;;;;;;4918838;29;20030;-81
2021/10/04 06:09:39;;;;;;;1.80;1.23;;;13.10;99.90;;;;;;4918177;29;20029;-81
2021/10/04 06:12:05;;;;;;;1.80;1.70;;;12.90;99.90;;;;;;4918014;29;20510;-80
2021/10/04 06:14:31;;;;;;;1.42;1.33;;;12.90;99.90;;;;;;4917616;29;20036;-80
2021/10/04 06:16:56;;;;;;;1.63;1.52;;;12.90;99.90;;;;;;4918229;29;20088;-80
2021/10/04 06:19:23;;;;;;;2.17;1.40;;;12.90;99.90;;;;;;4917466;29;20032;-81
2021/10/04 06:21:49;;;;;;;1.75;1.58;;;12.90;99.90;;;;;;4916448;29;20036;-75
2021/10/04 06:24:14;;;;;;;1.70;1.60;;;12.90;99.90;;;;;;4915842;29;20029;-74
2021/10/04 06:26:40;;;;;;;3.08;1.42;;;13.10;99.90;;;;;;4915475;29;20503;-74
2021/10/04 06:29:06;;;;;;;1.45;1.35;;;13.00;99.90;;;;;;4915288;29;20032;-74
2021/10/04 06:31:32;;;;;;;1.13;1.02;;;13.00;99.90;;;;;;4915611;29;20020;-74
2021/10/04 06:33:58;;;;;;;1.23;1.13;;;12.70;99.90;;;;;;4915787;29;20364;-74
2021/10/04 06:36:23;;;;;;;1.85;1.00;;;12.60;99.90;;;;;;4914706;29;20028;-75
2021/10/04 06:38:49;;;;;;;2.15;0.80;;;12.50;99.90;;;;;;4915173;29;20051;-75
2021/10/04 06:41:15;;;;;;;2.15;0.90;;;12.60;99.90;;;;;;4916860;29;20039;-74
2021/10/04 06:43:41;;;;;;;2.47;1.05;;;12.50;99.90;;;;;;4930707;29;20019;-73
2021/10/04 06:46:08;;;;;;;1.90;1.30;;;12.70;99.90;;;;;;4917380;29;20107;-75
2021/10/04 06:48:38;;;;;;;1.30;1.20;;;12.70;99.90;;;;;;4917867;29;20031;-75
2021/10/04 06:51:05;;;;;;;1.83;1.42;;;12.80;99.90;;;;;;4915596;29;20032;-75
2021/10/04 06:53:31;;;;;;;1.67;1.40;;;12.80;99.90;;;;;;4915543;29;20032;-73
2021/10/04 06:55:57;;;;;;;1.63;1.52;;;12.90;99.90;;;;;;4914753;29;20036;-72
2021/10/04 06:58:23;;;;;;;6.65;1.30;;;12.70;99.90;;;;;;4913965;29;20509;-74
2021/10/04 07:00:49;;;;;;;1.75;1.50;;;12.60;99.90;;;;;;4915331;29;20040;-74
2021/10/04 07:03:14;;;;;;;2.75;1.33;;;12.70;99.90;;;;;;4915538;29;20083;-75
2021/10/04 07:05:42;;;;;;;4.20;1.27;;;12.70;99.90;;;;;;4913683;29;20032;-76
2021/10/04 07:08:08;;;;;;;2.50;1.20;;;12.70;99.90;;;;;;4915994;29;20052;-72
2021/10/04 07:10:34;;;;;;;1.20;0.93;;;12.70;99.90;;;;;;4915273;29;20107;-73
2021/10/04 07:13:00;;;;;;;1.77;1.67;;;12.60;99.90;;;;;;4915427;29;20020;-71
2021/10/04 07:15:26;;;;;;;2.75;1.42;;;12.50;99.90;;;;;;4913319;29;20043;-73
2021/10/04 07:17:51;;;;;;;2.25;1.45;;;12.50;99.90;;;;;;4915530;29;20024;-75
2021/10/04 07:20:17;;;;;;;1.90;1.70;;;12.50;99.90;;;;;;4914819;29;20474;-72
2021/10/04 07:22:43;;;;;;;1.63;1.30;;;12.50;99.90;;;;;;4915528;29;20028;-74
2021/10/04 07:25:11;;;;;;;1.88;1.60;;;12.50;99.90;;;;;;4918217;29;20028;-73
2021/10/04 07:27:36;;;;;;;2.08;1.38;;;12.50;99.90;;;;;;4919800;29;20035;-73
2021/10/04 07:30:03;;;;;;;3.05;1.55;;;12.50;99.90;;;;;;4918812;29;20032;-74
2021/10/04 07:32:29;;;;;;;2.15;1.55;;;12.40;99.90;;;;;;4917470;29;20451;-73
2021/10/04 07:34:55;;;;;;;1.83;1.70;;;12.40;99.90;;;;;;4917719;29;20024;-73
2021/10/04 07:37:20;;;;;;;1.67;1.58;;;12.50;99.90;;;;;;4918488;29;20024;-73
2021/10/04 07:39:46;;;;;;;2.03;1.83;;;12.40;99.90;;;;;;4917345;29;20574;-72
2021/10/04 07:42:12;;;;;;;2.25;1.67;;;12.50;99.90;;;;;;4918819;29;20028;-74
2021/10/04 07:44:37;;;;;;;3.40;1.90;;;12.50;99.90;;;;;;4917737;29;20075;-74
2021/10/04 07:47:03;;;;;;;1.88;1.55;;;12.50;99.90;;;;;;4918833;29;20024;-74
2021/10/04 07:49:30;;;;;;;1.38;1.17;;;12.50;99.90;;;;;;4917962;29;20039;-74
2021/10/04 07:51:57;;;;;;;3.30;1.42;;;12.60;99.90;;;;;;4917788;29;20535;-74
2021/10/04 07:54:22;;;;;;;2.47;1.40;;;12.50;99.90;;;;;;4917650;29;20668;-74
2021/10/04 07:56:48;;;;;;;1.52;1.35;;;12.70;99.90;;;;;;4916736;29;20028;-74
2021/10/04 07:59:14;;;;;;;2.63;1.48;;;12.80;99.90;;;;;;4917818;29;20028;-74
2021/10/04 08:01:39;;;;;;;1.48;1.30;;;12.90;99.90;;;;;;4917942;29;20087;-75
2021/10/04 08:04:05;;;;;;;1.70;1.30;;;12.90;99.90;;;;;;4917535;29;20095;-74
2021/10/04 08:06:31;;;;;;;2.03;1.52;;;13.10;99.90;;;;;;4917029;29;20031;-72
2021/10/04 08:08:56;;;;;;;3.05;1.30;;;13.20;99.90;;;;;;4916478;29;20029;-74
2021/10/04 08:11:23;;;;;;;1.52;1.35;;;13.10;99.90;;;;;;4918041;29;20432;-74
2021/10/04 08:13:50;;;;;;;1.40;1.25;;;13.10;99.90;;;;;;4918087;29;20039;-74
2021/10/04 08:16:17;;;;;;;1.90;1.38;;;13.10;99.90;;;;;;4917314;29;20371;-73
2021/10/04 08:18:43;;;;;;;2.05;1.35;;;12.90;99.90;;;;;;4916600;29;20032;-74
2021/10/04 08:21:09;;;;;;;2.35;2.10;;;12.80;99.90;;;;;;4917421;29;20038;-74
2021/10/04 08:23:37;;;;;;;6.30;2.72;;;12.80;99.90;;;;;;4918527;29;20028;-74
2021/10/04 08:26:04;;;;;;;3.15;2.50;;;12.60;99.90;;;;;;4931918;29;20020;-73
2021/10/04 08:28:30;;;;;;;3.33;3.03;;;12.70;99.90;;;;;;4931539;29;20066;-72
2021/10/04 08:30:56;;;;;;;3.63;2.75;;;12.90;99.90;;;;;;4925111;29;20028;-72
2021/10/04 08:33:21;;;;;;;2.28;2.05;;;13.10;99.90;;;;;;4927088;29;20048;-73
2021/10/04 08:35:48;;;;;;;2.40;1.58;;;13.10;99.90;;;;;;4919248;29;20032;-73
2021/10/04 08:38:14;;;;;;;2.25;1.35;;;12.90;99.90;;;;;;4917405;29;20028;-74
2021/10/04 08:40:40;;;;;;;2.75;1.63;;;12.70;99.90;;;;;;4915897;29;20046;-72
2021/10/04 08:43:06;;;;;;;2.22;1.40;;;12.80;99.90;;;;;;4917444;29;20032;-72
2021/10/04 08:45:33;;;;;;;1.55;1.20;;;13.00;99.90;;;;;;4916860;29;20487;-73
2021/10/04 08:48:02;;;;;;;5.28;3.03;;;13.10;99.90;;;;;;4917459;29;20031;-73
2021/10/04 08:50:31;;;;;;;1.88;1.50;;;13.30;99.90;;;;;;4965622;23;20036;-71
2021/10/04 08:52:58;;;;;;;3.25;1.92;;;13.20;99.90;;;;;;4937378;29;20024;-71
2021/10/04 08:55:24;;;;;;;1.58;1.20;;;13.00;99.90;;;;;;4936717;29;20024;-71
2021/10/04 08:57:50;;;;;;;1.30;1.20;;;13.00;99.90;;;;;;4934532;29;20031;-69
2021/10/04 09:00:16;;;;;;;1.92;1.05;;;13.00;99.90;;;;;;4917839;29;20119;-70
2021/10/04 09:02:42;;;;;;;2.75;1.58;;;13.00;99.90;;;;;;4916803;29;20038;-70
2021/10/04 09:05:23;;;;;;;1.40;1.30;;;13.10;99.90;;;;;;4915831;29;20021;-70
2021/10/04 09:07:54;;;;;;;1.45;1.35;;;13.10;99.90;;;;;;4916971;29;20024;-71
2021/10/04 09:10:26;;;;;;;1.38;1.08;;;13.10;99.90;;;;;;4916713;29;20024;-70
2021/10/04 09:12:56;;;;;;;4.00;0.90;;;12.90;99.90;;;;;;4916875;29;20502;-70
2021/10/04 09:15:33;;;;;;;1.40;0.80;;;12.80;99.90;;;;;;4915838;29;20180;-70
2021/10/04 09:18:20;;;;;;;3.17;0.95;;;12.80;99.90;;;;;;4931144;29;20372;-71
2021/10/04 09:21:05;;;;;;;0.85;0.85;;;12.70;99.90;;;;;;4916108;29;20036;-70
2021/10/04 09:23:44;;;;;;;5.65;1.05;;;12.90;99.90;;;;;;4916562;29;20028;-71
2021/10/04 09:26:30;;;;;;;2.67;0.90;;;12.90;99.90;;;;;;4915912;29;20028;-71
2021/10/04 09:29:09;;;;;;;1.67;1.00;;;12.90;99.90;;;;;;4916337;29;20031;-71
2021/10/04 09:31:40;;;;;;;3.80;0.57;;;12.80;99.90;;;;;;4916360;29;20431;-71
2021/10/04 09:34:12;;;;;;;1.73;0.80;;;13.00;99.90;;;;;;4916198;29;20399;-72
2021/10/04 09:36:58;;;;;;;0.95;0.95;;;13.00;99.90;;;;;;4915251;29;20024;-70
2021/10/04 09:39:33;;;;;;;2.10;1.67;;;13.20;99.90;;;;;;4916133;29;20115;-70
2021/10/04 09:42:11;;;;;;;0.80;0.80;;;13.30;99.90;;;;;;4916185;29;20020;-71
2021/10/04 09:44:51;;;;;;;2.17;1.00;;;13.30;99.90;;;;;;4914113;29;20115;-72
2021/10/04 09:47:24;;;;;;;3.20;1.10;;;13.50;99.90;;;;;;4916060;29;20077;-72
2021/10/04 09:50:16;;;;;;;0.88;0.80;;;13.40;99.90;;;;;;4915694;29;20035;-72
2021/10/04 09:52:52;;;;;;;1.75;1.38;;;13.10;99.90;;;;;;4916196;29;20461;-71
2021/10/04 09:55:34;;;;;;;2.90;1.00;;;13.20;99.90;;;;;;4915807;29;20483;-71
2021/10/04 09:58:16;;;;;;;0.80;0.60;;;13.30;99.90;;;;;;4916750;29;20074;-71
2021/10/04 10:00:44;;;;;;;1.60;0.63;;;13.50;99.90;;;;;;4916291;29;20300;-72
2021/10/04 10:03:11;;;;;;;0.95;0.70;;;13.40;99.90;;;;;;4915745;29;20273;-71
2021/10/04 10:05:41;;;;;;;0.75;0.40;;;13.70;99.90;;;;;;4914816;29;20360;-70
2021/10/04 10:08:07;;;;;;;0.70;0.50;;;13.80;99.90;;;;;;4930432;29;20028;-73
2021/10/04 10:10:33;;;;;;;0.45;0.45;;;13.40;99.90;;;;;;4915922;29;20016;-71
2021/10/04 10:12:59;;;;;;;0.57;0.30;;;13.10;99.90;;;;;;4914799;29;20028;-71
2021/10/04 10:15:30;;;;;;;1.88;0.65;;;13.20;99.90;;;;;;4915189;29;20028;-72
2021/10/04 10:18:07;;;;;;;0.40;0.40;;;13.40;99.90;;;;;;4915817;29;20024;-70
2021/10/04 10:20:35;;;;;;;0.50;0.50;;;13.60;99.90;;;;;;4915570;29;20496;-71
2021/10/04 10:23:00;;;;;;;6.00;0.93;;;13.60;99.90;;;;;;4915734;29;20107;-70
2021/10/04 10:25:36;;;;;;;0.55;0.55;;;14.00;99.90;;;;;;4915052;29;20099;-70
2021/10/04 10:28:04;;;;;;;1.30;0.70;;;14.10;99.90;;;;;;4915783;29;20024;-71
2021/10/04 10:30:30;;;;;;;1.60;0.65;;;14.30;99.90;;;;;;4915600;29;20024;-71
2021/10/04 10:32:57;;;;;;;0.50;0.47;;;14.10;99.90;;;;;;4915865;29;20035;-71
2021/10/04 10:35:49;;;;;;;0.88;0.47;;;14.20;99.90;;;;;;4914859;29;20503;-71
2021/10/04 10:38:16;;;;;;;0.60;0.60;;;14.30;99.90;;;;;;4915606;29;20020;-69
2021/10/04 10:40:42;;;;;;;2.15;0.82;;;14.20;99.90;;;;;;4914039;29;20032;-70
2021/10/04 10:43:10;;;;;;;1.38;0.93;;;14.20;99.90;;;;;;4915655;29;20028;-71
2021/10/04 10:45:47;;;;;;;0.57;0.57;;;14.30;99.90;;;;;;4915300;29;20026;-70
2021/10/04 10:48:14;;;;;;;2.10;0.90;;;14.30;99.90;;;;;;4915514;29;20030;-70
2021/10/04 10:50:41;;;;;;;2.53;0.52;;;14.30;99.90;;;;;;4915757;29;20032;-71
2021/10/04 10:53:10;;;;;;;1.98;0.45;;;14.30;99.90;;;;;;4915517;29;20423;-71
2021/10/04 10:55:39;;;;;;;0.80;0.47;;;14.40;99.90;;;;;;4914743;29;20123;-74
2021/10/04 10:58:14;;;;;;;0.88;0.65;;;14.30;99.90;;;;;;4917747;29;20021;-71
2021/10/04 11:01:00;;;;;;;3.17;0.63;;;14.30;99.90;;;;;;4919298;29;20368;-72
2021/10/04 11:03:26;;;;;;;0.32;0.30;;;14.40;99.90;;;;;;4919326;29;20703;-71
2021/10/04 11:06:04;;;;;;;0.45;0.28;;;14.20;99.90;;;;;;4917904;29;20028;-71
2021/10/04 11:08:30;;;;;;;0.40;0.40;;;14.20;99.90;;;;;;4919951;29;20071;-71
2021/10/04 11:10:56;;;;;;;0.73;0.50;;;14.20;99.90;;;;;;4918930;29;20516;-71
2021/10/04 11:13:32;;;;;;;1.10;0.50;;;14.10;99.90;;;;;;4919122;29;20032;-72
2021/10/04 11:16:23;;;;;;;0.40;0.40;;;14.30;99.90;;;;;;4917878;29;20039;-69
2021/10/04 11:18:50;;;;;;;0.57;0.57;;;14.10;99.90;;;;;;4918352;29;20054;-70
2021/10/04 11:21:18;;;;;;;0.47;0.30;;;13.90;99.90;;;;;;4918435;29;20454;-70
2021/10/04 11:23:50;;;;;;;0.30;0.28;;;13.70;99.90;;;;;;4918692;29;20050;-73
2021/10/04 11:26:20;;;;;;;0.80;0.60;;;14.20;99.90;;;;;;4918157;29;20032;-73
2021/10/04 11:29:00;;;;;;;0.22;0.22;;;14.40;99.90;;;;;;4918353;29;20025;-71
2021/10/04 11:31:28;;;;;;;0.22;0.22;;;14.90;99.90;;;;;;4918628;29;20475;-71
2021/10/04 11:34:01;;;;;;;0.50;0.32;;;15.60;99.90;;;;;;4918579;29;20082;-71
2021/10/04 11:36:54;;;;;;;0.20;0.20;;;16.00;99.90;;;;;;4917611;29;20028;-70
2021/10/04 11:39:26;;;;;;;0.82;0.60;;;16.00;99.90;;;;;;4918126;29;20028;-70
2021/10/04 11:42:03;;;;;;;0.55;0.40;;;15.90;99.90;;;;;;4918297;29;20039;-70
2021/10/04 11:44:29;;;;;;;2.00;0.40;;;16.20;99.90;;;;;;4917661;29;20476;-70
2021/10/04 11:47:00;;;;;;;0.35;0.30;;;16.50;99.90;;;;;;4918354;29;20028;-72
2021/10/04 11:49:38;;;;;;;0.40;0.30;;;16.40;99.90;;;;;;4917922;29;20036;-70
2021/10/04 11:52:06;;;;;;;0.80;0.40;;;16.10;99.90;;;;;;4916683;29;20126;-72
2021/10/04 11:54:59;;;;;;;2.35;0.40;;;15.70;99.90;;;;;;4917551;29;20051;-72
2021/10/04 11:57:24;;;;;;;0.82;0.50;;;15.70;99.90;;;;;;4918042;29;20071;-70
2021/10/04 11:59:50;;;;;;;0.40;0.40;;;15.50;99.90;;;;;;4917778;29;20055;-72
2021/10/04 12:02:22;;;;;;;0.95;0.75;;;15.40;99.90;;;;;;4917888;29;20091;-72
2021/10/04 12:04:48;;;;;;;0.98;0.90;;;15.20;99.90;;;;;;4917225;29;20435;-71
2021/10/04 12:07:14;;;;;;;1.10;0.90;;;15.20;99.90;;;;;;4917992;29;20024;-71
2021/10/04 12:09:40;;;;;;;2.35;0.95;;;15.30;99.90;;;;;;4916549;29;20040;-71
2021/10/04 12:12:05;;;;;;;1.17;0.52;;;15.70;99.90;;;;;;4917974;29;20525;-71
2021/10/04 12:14:31;;;;;;;1.05;0.70;;;15.90;99.90;;;;;;4916793;29;20028;-72
2021/10/04 12:17:02;;;;;;;1.17;0.68;;;15.70;99.90;;;;;;4917436;29;20044;-71
2021/10/04 12:19:28;;;;;;;1.17;0.80;;;15.60;99.90;;;;;;4917259;29;20079;-71
2021/10/04 12:21:57;;;;;;;0.73;0.60;;;15.50;99.90;;;;;;4917411;29;20028;-71
2021/10/04 12:24:24;;;;;;;1.55;0.75;;;16.00;99.90;;;;;;4917063;29;20028;-72
2021/10/04 12:27:09;;;;;;;0.80;0.80;;;16.00;99.90;;;;;;4917447;29;20020;-73
2021/10/04 12:29:41;;;;;;;0.40;0.40;;;15.80;99.90;;;;;;4917813;29;20395;-71
2021/10/04 12:32:25;;;;;;;0.73;0.70;;;15.40;99.90;;;;;;4917597;29;20063;-71
2021/10/04 12:35:08;;;;;;;0.88;0.65;;;15.20;99.90;;;;;;4917172;29;20020;-71
2021/10/04 12:37:52;;;;;;;1.13;0.70;;;15.60;99.90;;;;;;4917552;29;20039;-70
2021/10/04 12:40:22;;;;;;;1.75;0.60;;;16.20;99.90;;;;;;4917540;29;20095;-70
2021/10/04 12:42:47;;;;;;;0.70;0.70;;;16.50;99.90;;;;;;4917409;29;20499;-70
2021/10/04 12:45:13;;;;;;;0.55;0.55;;;16.50;99.90;;;;;;4916803;29;20055;-72
2021/10/04 12:48:00;;;;;;;1.00;0.50;;;16.50;99.90;;;;;;4916239;29;20020;-71
2021/10/04 12:50:30;;;;;;;1.85;0.45;;;16.20;99.90;;;;;;4916722;29;20080;-70
2021/10/04 12:53:18;;;;;;;0.68;0.50;;;16.50;99.90;;;;;;4917310;29;20028;-71